Time;durP1;ratioP1;P1;durP2;ratioP2;P2;SDS_P1;SDS_P2;PMS_P1;PMS_P2;Temp;Humidity;BMP_temperature;BMP_pressure;BME280_temperature;BME280_humidity;BME280_pressure;Samples;Min_cycle;Max_cycle;Signal;HPM_P1;HPM_P2
2024/01/01 00:01:39;;;;;;;87.25;67.72;;;5.60;99.90;;;;;;5064643;28;20232;-57
2024/01/01 00:04:06;;;;;;;95.97;70.32;;;5.70;99.90;;;;;;5068708;28;20293;-59
2024/01/01 00:06:33;;;;;;;86.07;69.78;;;5.70;99.90;;;;;;5054819;28;20198;-59
2024/01/01 00:09:02;;;;;;;90.88;71.68;;;5.80;99.90;;;;;;5053317;28;20202;-55
2024/01/01 00:11:28;;;;;;;85.00;62.53;;;5.80;99.90;;;;;;5059299;28;20233;-59
2024/01/01 00:13:55;;;;;;;91.45;72.70;;;5.90;99.90;;;;;;5056976;28;20205;-59
2024/01/01 00:16:22;;;;;;;100.00;74.70;;;5.90;99.90;;;;;;5068783;28;20230;-56
2024/01/01 00:18:49;;;;;;;60.65;42.95;;;5.90;99.90;;;;;;5070342;28;20202;-56
2024/01/01 00:21:16;;;;;;;39.05;30.30;;;6.00;99.90;;;;;;5059743;28;20592;-57
2024/01/01 00:23:43;;;;;;;31.48;25.15;;;6.00;99.90;;;;;;5072230;28;20285;-58
2024/01/01 00:26:11;;;;;;;26.35;22.40;;;6.00;99.90;;;;;;5073410;28;20292;-59
2024/01/01 00:28:37;;;;;;;22.45;15.63;;;6.10;99.90;;;;;;5065229;28;20202;-59
2024/01/01 00:31:04;;;;;;;19.38;17.35;;;6.20;99.90;;;;;;5068286;28;20248;-59
2024/01/01 00:33:31;;;;;;;28.02;21.80;;;6.30;99.90;;;;;;5074209;28;20202;-59
2024/01/01 00:35:58;;;;;;;18.20;14.00;;;6.30;99.90;;;;;;5065875;28;20232;-59
2024/01/01 00:38:25;;;;;;;16.30;13.93;;;6.40;99.90;;;;;;5066423;28;20615;-55
2024/01/01 00:40:52;;;;;;;14.75;12.18;;;6.40;99.90;;;;;;5097229;22;20238;-62
2024/01/01 00:43:20;;;;;;;13.52;12.13;;;6.50;99.90;;;;;;5064770;28;20232;-62
2024/01/01 00:45:47;;;;;;;12.60;10.20;;;6.50;99.90;;;;;;5062298;28;20198;-62
2024/01/01 00:48:14;;;;;;;11.70;8.98;;;6.50;99.90;;;;;;5071591;28;20566;-61
2024/01/01 00:50:41;;;;;;;10.38;7.53;;;6.50;99.90;;;;;;5066531;28;20202;-62
2024/01/01 00:53:07;;;;;;;8.15;7.00;;;6.50;99.90;;;;;;5073502;28;20237;-61
2024/01/01 00:55:34;;;;;;;10.25;7.10;;;6.50;99.90;;;;;;5073456;28;20229;-62
2024/01/01 00:58:01;;;;;;;7.15;6.45;;;6.50;99.90;;;;;;5074036;28;20206;-62
2024/01/01 01:00:29;;;;;;;11.48;7.13;;;6.50;99.90;;;;;;5073431;28;20212;-61
2024/01/01 01:02:56;;;;;;;8.48;6.10;;;6.50;99.90;;;;;;5073437;28;20245;-62
2024/01/01 01:05:24;;;;;;;7.07;6.05;;;6.50;99.90;;;;;;5073373;28;20292;-61
2024/01/01 01:07:51;;;;;;;4.88;4.45;;;6.50;99.90;;;;;;5057690;28;20202;-61
2024/01/01 01:10:17;;;;;;;7.65;5.60;;;6.50;99.90;;;;;;5067999;28;20224;-62
2024/01/01 01:12:44;;;;;;;8.85;7.93;;;6.50;99.90;;;;;;5073311;28;20309;-62
2024/01/01 01:15:11;;;;;;;10.75;6.25;;;6.50;99.90;;;;;;5073423;28;20312;-62
2024/01/01 01:17:39;;;;;;;6.88;4.88;;;6.50;99.90;;;;;;5073173;28;20577;-62
2024/01/01 01:20:07;;;;;;;6.85;5.32;;;6.60;99.90;;;;;;5072888;28;20205;-62
2024/01/01 01:22:34;;;;;;;6.50;4.63;;;6.60;99.90;;;;;;5068261;28;20309;-62
2024/01/01 01:25:01;;;;;;;9.93;5.63;;;6.60;99.90;;;;;;5062446;28;20205;-62
2024/01/01 01:27:27;;;;;;;6.55;5.95;;;6.60;99.90;;;;;;5073324;28;20212;-62
2024/01/01 01:29:54;;;;;;;6.40;5.68;;;6.70;99.90;;;;;;5072722;28;20206;-62
2024/01/01 01:32:21;;;;;;;6.72;5.90;;;6.70;99.90;;;;;;5072626;28;20603;-62
2024/01/01 01:34:49;;;;;;;9.63;6.38;;;6.70;99.90;;;;;;5072801;28;20232;-62
2024/01/01 01:37:17;;;;;;;10.18;7.07;;;6.70;99.90;;;;;;5072651;28;20202;-62
2024/01/01 01:39:44;;;;;;;9.88;6.75;;;6.70;99.90;;;;;;5072703;28;20294;-62
2024/01/01 01:42:11;;;;;;;10.00;6.95;;;6.80;99.90;;;;;;5072671;28;20320;-62
2024/01/01 01:44:38;;;;;;;8.40;7.35;;;6.70;99.90;;;;;;5072880;28;20212;-61
2024/01/01 01:47:05;;;;;;;10.00;8.90;;;6.70;99.90;;;;;;5065811;28;20228;-62
2024/01/01 01:49:32;;;;;;;12.55;9.13;;;6.70;99.90;;;;;;5060574;28;20202;-61
2024/01/01 01:52:03;;;;;;;17.63;8.55;;;6.80;99.90;;;;;;5072337;28;20321;-61
2024/01/01 01:54:34;;;;;;;9.70;8.63;;;6.80;99.90;;;;;;5068636;28;20232;-62
2024/01/01 01:57:02;;;;;;;11.18;9.27;;;6.80;99.90;;;;;;5057847;28;20198;-61
2024/01/01 01:59:29;;;;;;;12.15;10.02;;;6.80;99.90;;;;;;5068622;28;20207;-61
2024/01/01 02:01:57;;;;;;;13.25;10.75;;;6.80;99.90;;;;;;5058969;28;20595;-61
2024/01/01 02:04:24;;;;;;;12.80;11.48;;;6.90;99.90;;;;;;5071269;28;20300;-62
2024/01/01 02:06:51;;;;;;;16.45;12.55;;;6.90;99.90;;;;;;5072464;28;20285;-61
2024/01/01 02:09:20;;;;;;;15.85;13.43;;;6.90;99.90;;;;;;5071393;28;20209;-62
2024/01/01 02:11:47;;;;;;;14.88;12.25;;;6.90;99.90;;;;;;5070687;28;20225;-61
2024/01/01 02:14:15;;;;;;;16.48;12.57;;;6.90;99.90;;;;;;5066553;28;20205;-62
2024/01/01 02:16:44;;;;;;;18.80;13.02;;;6.90;99.90;;;;;;5071564;28;20235;-62
2024/01/01 02:19:18;;;;;;;18.42;16.55;;;6.90;99.90;;;;;;5060491;28;20216;-62
2024/01/01 02:21:45;;;;;;;17.73;13.73;;;6.90;99.90;;;;;;5067702;28;20316;-62
2024/01/01 02:24:15;;;;;;;23.00;14.13;;;6.90;99.90;;;;;;5062312;28;20205;-62
2024/01/01 02:26:42;;;;;;;20.67;15.02;;;6.90;99.90;;;;;;5061432;28;20244;-62
2024/01/01 02:29:09;;;;;;;18.02;16.13;;;6.90;99.90;;;;;;5051929;28;20209;-62
2024/01/01 02:31:36;;;;;;;20.75;14.45;;;6.90;99.90;;;;;;5052161;28;20248;-62
2024/01/01 02:34:03;;;;;;;18.42;14.32;;;6.90;99.90;;;;;;5052580;28;20268;-62
2024/01/01 02:36:31;;;;;;;19.65;13.35;;;6.90;99.90;;;;;;5052223;28;20234;-62
2024/01/01 02:38:57;;;;;;;20.10;15.32;;;6.90;99.90;;;;;;5052110;28;20212;-61
2024/01/01 02:41:25;;;;;;;24.27;17.10;;;6.80;99.90;;;;;;5052128;28;20762;-62
2024/01/01 02:43:52;;;;;;;24.70;15.75;;;6.80;99.90;;;;;;5051483;28;20278;-62
2024/01/01 02:46:19;;;;;;;19.65;16.88;;;6.90;99.90;;;;;;5052102;28;20388;-62
2024/01/01 02:48:46;;;;;;;22.17;17.67;;;6.80;99.90;;;;;;5051982;28;20297;-61
2024/01/01 02:51:13;;;;;;;21.15;15.27;;;6.80;99.90;;;;;;5051995;28;20721;-62
2024/01/01 02:53:40;;;;;;;20.00;16.17;;;6.80;99.90;;;;;;5052063;28;20206;-62
2024/01/01 02:56:15;;;;;;;17.73;15.82;;;6.80;99.90;;;;;;5051875;28;20322;-62
2024/01/01 02:58:43;;;;;;;17.58;15.68;;;6.80;99.90;;;;;;5051940;28;20210;-62
2024/01/01 03:01:10;;;;;;;23.38;16.13;;;6.80;99.90;;;;;;5051791;28;20233;-62
2024/01/01 03:03:37;;;;;;;18.50;16.70;;;6.80;99.90;;;;;;5051983;28;20211;-62
2024/01/01 03:06:04;;;;;;;18.92;15.50;;;6.80;99.90;;;;;;5051849;28;20701;-62
2024/01/01 03:08:31;;;;;;;17.92;15.95;;;6.80;99.90;;;;;;5051781;28;20237;-62
2024/01/01 03:10:57;;;;;;;19.85;15.02;;;6.80;99.90;;;;;;5051426;28;20701;-61
2024/01/01 03:13:24;;;;;;;25.25;15.40;;;6.80;99.90;;;;;;5051916;28;20293;-61
2024/01/01 03:15:52;;;;;;;19.02;14.63;;;6.70;99.90;;;;;;5051446;28;20712;-62
2024/01/01 03:18:21;;;;;;;23.08;13.88;;;6.70;99.90;;;;;;5051609;28;20211;-62
2024/01/01 03:20:47;;;;;;;17.05;13.75;;;6.70;99.90;;;;;;5051386;28;20210;-62
2024/01/01 03:23:14;;;;;;;19.83;13.32;;;6.70;99.90;;;;;;5051291;28;20755;-62
2024/01/01 03:25:41;;;;;;;17.15;12.75;;;6.70;99.90;;;;;;5051791;28;20209;-62
2024/01/01 03:28:08;;;;;;;13.93;11.75;;;6.70;99.90;;;;;;5051669;28;20689;-62
2024/01/01 03:30:35;;;;;;;17.05;12.68;;;6.70;99.90;;;;;;5051476;28;20216;-62
2024/01/01 03:33:04;;;;;;;17.45;11.57;;;6.70;99.90;;;;;;5051412;28;20249;-62
2024/01/01 03:35:31;;;;;;;16.67;12.07;;;6.60;99.90;;;;;;5051374;28;20662;-62
2024/01/01 03:37:58;;;;;;;24.63;16.08;;;6.60;99.90;;;;;;5051206;28;20210;-61
2024/01/01 03:40:25;;;;;;;17.23;13.27;;;6.60;99.90;;;;;;5051480;28;20217;-62
2024/01/01 03:42:52;;;;;;;16.30;13.30;;;6.60;99.90;;;;;;5051113;28;20236;-62
2024/01/01 03:45:19;;;;;;;14.52;13.13;;;6.60;99.90;;;;;;5051483;28;20297;-62
2024/01/01 03:47:46;;;;;;;22.88;15.45;;;6.60;99.90;;;;;;5051460;28;20221;-62
2024/01/01 03:50:16;;;;;;;24.73;16.48;;;6.60;99.90;;;;;;5051110;28;20209;-62
2024/01/01 03:52:43;;;;;;;16.27;14.50;;;6.50;99.90;;;;;;5051197;28;20230;-62
2024/01/01 03:55:09;;;;;;;19.60;15.35;;;6.50;99.90;;;;;;5052221;28;20206;-62
2024/01/01 03:57:36;;;;;;;20.45;15.18;;;6.50;99.90;;;;;;5055426;28;20650;-61
2024/01/01 04:00:04;;;;;;;21.73;16.08;;;6.50;99.90;;;;;;5055324;28;20206;-62
2024/01/01 04:02:31;;;;;;;23.10;15.90;;;6.50;99.90;;;;;;5055245;28;20248;-62
2024/01/01 04:04:58;;;;;;;21.55;16.15;;;6.40;99.90;;;;;;5055027;28;20301;-62
2024/01/01 04:07:26;;;;;;;21.27;15.18;;;6.40;99.90;;;;;;5055236;28;20313;-61
2024/01/01 04:09:53;;;;;;;23.10;16.50;;;6.40;99.90;;;;;;5055119;28;20301;-61
2024/01/01 04:12:20;;;;;;;17.98;15.30;;;6.50;99.90;;;;;;5054979;28;20779;-62
2024/01/01 04:14:46;;;;;;;19.23;14.38;;;6.50;99.90;;;;;;5055072;28;20221;-62
2024/01/01 04:17:13;;;;;;;27.63;15.65;;;6.50;99.90;;;;;;5054861;28;20230;-62
2024/01/01 04:19:44;;;;;;;18.58;14.15;;;6.50;99.90;;;;;;5054864;28;20203;-61
2024/01/01 04:22:12;;;;;;;20.92;15.50;;;6.50;99.90;;;;;;5054811;28;20708;-61
2024/01/01 04:24:40;;;;;;;20.35;14.88;;;6.50;99.90;;;;;;5055002;28;20248;-62
2024/01/01 04:27:07;;;;;;;17.95;14.27;;;6.60;99.90;;;;;;5053421;28;20210;-62
2024/01/01 04:29:33;;;;;;;18.17;13.43;;;6.60;99.90;;;;;;5054749;28;20416;-62
2024/01/01 04:32:00;;;;;;;16.25;13.75;;;6.60;99.90;;;;;;5054850;28;20222;-61
2024/01/01 04:34:27;;;;;;;23.02;15.68;;;6.60;99.90;;;;;;5054704;28;20207;-62
2024/01/01 04:36:54;;;;;;;17.35;14.50;;;6.60;99.90;;;;;;5054537;28;20218;-62
2024/01/01 04:39:21;;;;;;;21.55;14.98;;;6.60;99.90;;;;;;5054430;28;20232;-62
2024/01/01 04:41:49;;;;;;;16.63;13.15;;;6.60;99.90;;;;;;5054358;28;20324;-61
2024/01/01 04:44:16;;;;;;;18.95;13.63;;;6.60;99.90;;;;;;5054658;28;20301;-62
2024/01/01 04:46:43;;;;;;;19.23;12.75;;;6.60;99.90;;;;;;5054424;28;20212;-62
2024/01/01 04:49:09;;;;;;;13.65;11.93;;;6.60;99.90;;;;;;5054182;28;20210;-62
2024/01/01 04:51:36;;;;;;;16.10;9.82;;;6.60;99.90;;;;;;5054359;28;20241;-62
2024/01/01 04:54:03;;;;;;;17.15;11.57;;;6.60;99.90;;;;;;5054258;28;20730;-62
2024/01/01 04:56:30;;;;;;;14.35;10.82;;;6.60;99.90;;;;;;5054553;28;20668;-62
2024/01/01 04:58:58;;;;;;;14.88;12.10;;;6.60;99.90;;;;;;5054129;28;20217;-62
2024/01/01 05:01:26;;;;;;;15.50;11.77;;;6.60;99.90;;;;;;5054380;28;20222;-61
2024/01/01 05:03:53;;;;;;;11.10;10.00;;;6.60;99.90;;;;;;5054060;28;20215;-62
2024/01/01 05:06:19;;;;;;;17.27;10.55;;;6.60;99.90;;;;;;5054060;28;20647;-62
2024/01/01 05:08:46;;;;;;;15.50;11.35;;;6.60;99.90;;;;;;5053226;28;20301;-61
2024/01/01 05:11:13;;;;;;;10.60;9.60;;;6.60;99.90;;;;;;5054117;28;20222;-62
2024/01/01 05:13:40;;;;;;;12.45;9.48;;;6.60;99.90;;;;;;5054014;28;20211;-61
2024/01/01 05:16:10;;;;;;;15.40;11.10;;;6.60;99.90;;;;;;5053713;28;20227;-61
2024/01/01 05:18:37;;;;;;;13.60;10.57;;;6.60;99.90;;;;;;5053777;28;20291;-62
2024/01/01 05:21:05;;;;;;;14.45;10.10;;;6.60;99.90;;;;;;5053735;28;20234;-62
2024/01/01 05:23:32;;;;;;;14.23;10.85;;;6.60;99.90;;;;;;5053684;28;20310;-62
2024/01/01 05:25:59;;;;;;;11.73;8.20;;;6.50;99.90;;;;;;5053669;28;20208;-62
2024/01/01 05:28:26;;;;;;;11.60;7.53;;;6.50;99.90;;;;;;5053739;28;20213;-62
2024/01/01 05:30:52;;;;;;;11.95;7.63;;;6.50;99.90;;;;;;5053376;28;20212;-61
2024/01/01 05:33:20;;;;;;;11.10;6.85;;;6.50;99.90;;;;;;5053572;28;20588;-62
2024/01/01 05:35:47;;;;;;;17.60;8.60;;;6.50;99.90;;;;;;5053264;28;20202;-62
2024/01/01 05:38:14;;;;;;;9.88;5.60;;;6.50;99.90;;;;;;5053634;28;20206;-62
2024/01/01 05:40:44;;;;;;;13.35;5.78;;;6.50;99.90;;;;;;5053484;28;20217;-62
2024/01/01 05:43:11;;;;;;;6.43;5.03;;;6.50;99.90;;;;;;5053555;28;20630;-62
2024/01/01 05:45:37;;;;;;;6.57;4.03;;;6.50;99.90;;;;;;5053276;28;20238;-62
2024/01/01 05:48:05;;;;;;;6.30;4.90;;;6.50;99.90;;;;;;5053159;28;20202;-62
2024/01/01 05:50:33;;;;;;;8.77;5.45;;;6.50;99.90;;;;;;5052982;28;20596;-62
2024/01/01 05:53:00;;;;;;;5.50;4.13;;;6.50;99.90;;;;;;5053361;28;20727;-62
2024/01/01 05:55:27;;;;;;;14.25;4.90;;;6.50;99.90;;;;;;5053240;28;20210;-62
2024/01/01 05:57:54;;;;;;;5.13;4.55;;;6.50;99.90;;;;;;5053084;28;20729;-62
2024/01/01 06:00:20;;;;;;;12.23;5.43;;;6.40;99.90;;;;;;5052947;28;20217;-61
2024/01/01 06:02:47;;;;;;;6.80;4.72;;;6.40;99.90;;;;;;5052880;28;20579;-62
2024/01/01 06:05:14;;;;;;;7.55;4.25;;;6.40;99.90;;;;;;5052887;28;20297;-62
2024/01/01 06:07:43;;;;;;;5.50;5.00;;;6.40;99.90;;;;;;5053003;28;20212;-62
2024/01/01 06:10:10;;;;;;;6.32;5.18;;;6.40;99.90;;;;;;5052820;28;20587;-62
2024/01/01 06:12:37;;;;;;;7.78;4.97;;;6.50;99.90;;;;;;5066201;28;20228;-62
2024/01/01 06:15:05;;;;;;;11.02;5.78;;;6.50;99.90;;;;;;5072574;28;20206;-62
2024/01/01 06:17:32;;;;;;;7.75;6.30;;;6.50;99.90;;;;;;5064255;28;20225;-62
2024/01/01 06:19:58;;;;;;;6.60;3.65;;;6.50;99.90;;;;;;5071699;28;20209;-62
2024/01/01 06:22:25;;;;;;;15.15;6.72;;;6.50;99.90;;;;;;5072500;28;20232;-62
2024/01/01 06:24:53;;;;;;;5.68;5.15;;;6.50;99.90;;;;;;5072800;28;20297;-61
2024/01/01 06:27:20;;;;;;;8.35;5.03;;;6.50;99.90;;;;;;5072525;28;20289;-61
2024/01/01 06:29:47;;;;;;;6.40;5.35;;;6.50;99.90;;;;;;5072076;28;20749;-61
2024/01/01 06:32:14;;;;;;;8.25;4.15;;;6.50;99.90;;;;;;5072158;28;20226;-62
2024/01/01 06:34:41;;;;;;;8.82;3.85;;;6.50;99.90;;;;;;5072553;28;20301;-62
2024/01/01 06:37:07;;;;;;;9.30;4.28;;;6.50;99.90;;;;;;5072338;28;20233;-61
2024/01/01 06:39:35;;;;;;;8.27;5.13;;;6.40;99.90;;;;;;5072053;28;20210;-62
2024/01/01 06:42:03;;;;;;;6.13;3.40;;;6.40;99.90;;;;;;5095452;22;20257;-60
2024/01/01 06:44:30;;;;;;;9.98;3.75;;;6.40;99.90;;;;;;5072130;28;20285;-60
2024/01/01 06:46:57;;;;;;;3.90;3.25;;;6.30;99.90;;;;;;5072054;28;20280;-58
2024/01/01 06:49:23;;;;;;;8.55;4.03;;;6.30;99.90;;;;;;5071839;28;20210;-60
2024/01/01 06:51:51;;;;;;;4.53;3.67;;;6.30;99.90;;;;;;5071728;28;20233;-60
2024/01/01 06:54:18;;;;;;;10.50;4.18;;;6.30;99.90;;;;;;5071797;28;20237;-59
2024/01/01 06:56:45;;;;;;;6.22;3.42;;;6.20;99.90;;;;;;5071573;28;20225;-60
2024/01/01 06:59:14;;;;;;;4.32;3.95;;;6.20;99.90;;;;;;5071768;28;20212;-60
2024/01/01 07:01:42;;;;;;;7.00;3.45;;;6.20;99.90;;;;;;5071718;28;20252;-57
2024/01/01 07:04:09;;;;;;;3.40;3.10;;;6.20;99.90;;;;;;5071764;28;20206;-60
2024/01/01 07:06:36;;;;;;;3.42;1.90;;;6.20;99.90;;;;;;5072119;28;20297;-60
2024/01/01 07:09:03;;;;;;;6.85;3.50;;;6.20;99.90;;;;;;5071761;28;20205;-59
2024/01/01 07:11:30;;;;;;;5.88;2.97;;;6.20;99.90;;;;;;5072168;28;20237;-60
2024/01/01 07:13:57;;;;;;;4.22;2.53;;;6.10;99.90;;;;;;5071901;28;20296;-61
2024/01/01 07:16:25;;;;;;;5.20;3.33;;;6.10;99.90;;;;;;5071650;28;20221;-60
2024/01/01 07:18:52;;;;;;;3.92;2.33;;;6.10;99.90;;;;;;5070560;28;20284;-57
2024/01/01 07:21:19;;;;;;;3.97;2.70;;;6.10;99.90;;;;;;5070252;28;20204;-60
2024/01/01 07:23:46;;;;;;;3.15;2.20;;;6.10;99.90;;;;;;5070867;28;20208;-59
2024/01/01 07:26:12;;;;;;;9.48;3.00;;;6.10;99.90;;;;;;5070745;28;20224;-58
2024/01/01 07:28:39;;;;;;;3.85;2.70;;;6.10;99.90;;;;;;5070271;28;20208;-61
2024/01/01 07:31:06;;;;;;;5.95;3.05;;;6.10;99.90;;;;;;5068418;28;20251;-60
2024/01/01 07:33:34;;;;;;;3.92;2.30;;;6.10;99.90;;;;;;5070831;28;20256;-60
2024/01/01 07:36:01;;;;;;;6.00;2.42;;;6.10;99.90;;;;;;5071454;28;20213;-61
2024/01/01 07:38:28;;;;;;;3.35;2.75;;;6.00;99.90;;;;;;5071341;28;20677;-60
2024/01/01 07:40:55;;;;;;;5.63;2.95;;;6.00;99.90;;;;;;5070828;28;20198;-61
2024/01/01 07:43:22;;;;;;;3.13;2.58;;;6.00;99.90;;;;;;5070690;28;20236;-60
2024/01/01 07:45:49;;;;;;;2.80;2.33;;;6.10;99.90;;;;;;5070352;28;20293;-61
2024/01/01 07:48:16;;;;;;;10.93;3.28;;;6.10;99.90;;;;;;5071250;28;20698;-58
2024/01/01 07:50:45;;;;;;;5.88;3.17;;;6.10;99.90;;;;;;5071375;28;20259;-59
2024/01/01 07:53:11;;;;;;;2.50;2.30;;;6.10;99.90;;;;;;5071452;28;20230;-60
2024/01/01 07:55:38;;;;;;;9.00;3.05;;;6.10;99.90;;;;;;5071265;28;20239;-60
2024/01/01 07:58:05;;;;;;;5.47;2.42;;;6.10;99.90;;;;;;5071062;28;20226;-61
2024/01/01 08:00:32;;;;;;;6.72;2.60;;;6.10;99.90;;;;;;5070901;28;20205;-61
2024/01/01 08:02:59;;;;;;;3.75;2.67;;;6.10;99.90;;;;;;5070743;28;20226;-60
2024/01/01 08:05:26;;;;;;;5.10;2.30;;;6.10;99.90;;;;;;5071122;28;20259;-61
2024/01/01 08:07:57;;;;;;;6.15;2.78;;;6.20;99.90;;;;;;5071407;28;20209;-59
2024/01/01 08:10:24;;;;;;;4.75;2.35;;;6.20;99.90;;;;;;5071126;28;20201;-61
2024/01/01 08:12:50;;;;;;;7.43;4.55;;;6.20;99.90;;;;;;5070634;28;20688;-60
2024/01/01 08:15:17;;;;;;;4.00;2.15;;;6.20;99.90;;;;;;5070919;28;20296;-61
2024/01/01 08:17:44;;;;;;;5.28;2.15;;;6.20;99.90;;;;;;5071226;28;20638;-61
2024/01/01 08:20:12;;;;;;;4.53;2.00;;;6.30;99.90;;;;;;5071216;28;20211;-61
2024/01/01 08:22:38;;;;;;;3.38;2.63;;;6.30;99.90;;;;;;5070855;28;20229;-61
2024/01/01 08:25:07;;;;;;;7.95;2.00;;;6.30;99.90;;;;;;5070802;28;20678;-61
2024/01/01 08:27:34;;;;;;;3.30;2.17;;;6.40;99.90;;;;;;5070895;28;20206;-61
2024/01/01 08:30:01;;;;;;;4.70;2.17;;;6.40;99.90;;;;;;5070914;28;20221;-59
2024/01/01 08:32:28;;;;;;;9.02;2.75;;;6.50;99.90;;;;;;5070595;28;20225;-61
2024/01/01 08:34:55;;;;;;;3.97;1.30;;;6.50;99.90;;;;;;5071133;28;20220;-60
2024/01/01 08:37:21;;;;;;;3.45;2.03;;;6.50;99.90;;;;;;5070564;28;20793;-61
2024/01/01 08:39:48;;;;;;;6.90;2.97;;;6.50;99.90;;;;;;5070724;28;20212;-61
2024/01/01 08:42:16;;;;;;;2.42;1.70;;;6.60;99.90;;;;;;5071647;28;20245;-61
2024/01/01 08:44:43;;;;;;;5.75;1.50;;;6.60;99.90;;;;;;5074452;28;20208;-59
2024/01/01 08:47:10;;;;;;;5.45;4.85;;;6.60;99.90;;;;;;5074300;28;20319;-61
2024/01/01 08:49:37;;;;;;;2.97;2.45;;;6.70;99.90;;;;;;5073943;28;20291;-61
2024/01/01 08:52:04;;;;;;;3.38;1.75;;;6.80;99.90;;;;;;5074327;28;20226;-61
2024/01/01 08:54:31;;;;;;;7.28;3.92;;;6.80;99.90;;;;;;5074291;28;20206;-61
2024/01/01 08:56:58;;;;;;;8.48;5.60;;;6.90;99.90;;;;;;5074022;28;20210;-61
2024/01/01 08:59:26;;;;;;;26.10;11.57;;;6.90;99.90;;;;;;5074258;28;20209;-61
2024/01/01 09:01:53;;;;;;;11.48;7.15;;;6.90;99.90;;;;;;5074277;28;20222;-61
2024/01/01 09:04:20;;;;;;;9.63;4.47;;;6.90;99.90;;;;;;5074220;28;20214;-61
2024/01/01 09:06:47;;;;;;;5.68;1.92;;;6.90;99.90;;;;;;5074078;28;20297;-60
2024/01/01 09:09:14;;;;;;;7.93;2.20;;;6.90;99.90;;;;;;5073754;28;20204;-61
2024/01/01 09:11:41;;;;;;;4.13;1.90;;;7.00;99.90;;;;;;5073826;28;20264;-60
2024/01/01 09:14:07;;;;;;;9.10;3.90;;;7.10;99.90;;;;;;5073865;28;20216;-60
2024/01/01 09:16:37;;;;;;;6.20;2.13;;;7.20;99.90;;;;;;5074037;28;20235;-61
2024/01/01 09:19:05;;;;;;;4.15;2.40;;;7.20;99.90;;;;;;5073690;28;20612;-60
2024/01/01 09:21:31;;;;;;;4.22;1.70;;;7.20;99.90;;;;;;5073852;28;20317;-61
2024/01/01 09:24:00;;;;;;;3.33;2.85;;;7.30;99.90;;;;;;5073471;28;20586;-61
2024/01/01 09:26:27;;;;;;;4.05;1.70;;;7.30;99.90;;;;;;5073581;28;20197;-60
2024/01/01 09:28:54;;;;;;;4.40;1.83;;;7.30;99.90;;;;;;5073334;28;20206;-60
2024/01/01 09:31:21;;;;;;;5.93;2.60;;;7.30;99.90;;;;;;5072828;28;20194;-61
2024/01/01 09:33:49;;;;;;;8.93;2.45;;;7.30;99.90;;;;;;5072850;28;20731;-59
2024/01/01 09:36:16;;;;;;;9.57;2.25;;;7.30;99.90;;;;;;5072615;28;20208;-59
2024/01/01 09:38:43;;;;;;;6.40;2.42;;;7.30;99.90;;;;;;5068980;28;20230;-61
2024/01/01 09:41:12;;;;;;;5.38;2.40;;;7.40;99.90;;;;;;5071928;28;20209;-60
2024/01/01 09:43:39;;;;;;;3.95;1.95;;;7.40;99.90;;;;;;5070184;28;20582;-60
2024/01/01 09:46:07;;;;;;;5.50;2.22;;;7.50;99.90;;;;;;5070735;28;20230;-61
2024/01/01 09:48:33;;;;;;;6.00;2.15;;;7.50;99.90;;;;;;5071602;28;20202;-60
2024/01/01 09:51:03;;;;;;;3.97;2.38;;;7.60;99.90;;;;;;5067929;28;20209;-59
2024/01/01 09:53:31;;;;;;;4.00;2.22;;;7.60;99.90;;;;;;5072045;28;20880;-60
2024/01/01 09:55:58;;;;;;;5.15;2.47;;;7.60;99.90;;;;;;5072642;28;20201;-61
2024/01/01 09:58:25;;;;;;;1.60;1.50;;;7.60;99.90;;;;;;5072053;28;20313;-60
2024/01/01 10:00:52;;;;;;;5.47;2.17;;;7.50;99.90;;;;;;5072231;28;20205;-61
2024/01/01 10:03:20;;;;;;;4.85;3.42;;;7.60;99.90;;;;;;5072049;28;20224;-61
2024/01/01 10:05:48;;;;;;;5.43;2.55;;;7.60;99.90;;;;;;5072582;28;20625;-61
2024/01/01 10:08:16;;;;;;;5.63;1.60;;;7.50;99.90;;;;;;5072003;28;20259;-60
2024/01/01 10:10:44;;;;;;;3.60;1.77;;;7.60;99.90;;;;;;5067254;28;20286;-60
2024/01/01 10:13:12;;;;;;;5.22;3.85;;;7.60;99.90;;;;;;5070956;28;20222;-60
2024/01/01 10:15:40;;;;;;;4.07;1.77;;;7.60;99.90;;;;;;5070989;28;20205;-60
2024/01/01 10:18:12;;;;;;;8.27;2.45;;;7.60;99.90;;;;;;5071735;28;20658;-61
2024/01/01 10:20:40;;;;;;;3.63;1.90;;;7.60;99.90;;;;;;5066643;28;20288;-59
2024/01/01 10:23:29;;;;;;;6.93;3.33;;;7.60;99.90;;;;;;5070737;28;20236;-60
2024/01/01 10:26:07;;;;;;;6.07;3.17;;;7.60;99.90;;;;;;5067508;28;20201;-59
2024/01/01 10:28:34;;;;;;;4.45;2.55;;;7.60;99.90;;;;;;5070080;28;20197;-59
2024/01/01 10:31:02;;;;;;;4.10;2.13;;;7.50;99.90;;;;;;5072137;28;20201;-60
2024/01/01 10:33:31;;;;;;;2.58;1.60;;;7.50;99.90;;;;;;5071354;28;20674;-59
2024/01/01 10:36:01;;;;;;;2.15;1.95;;;7.50;99.90;;;;;;5072167;28;20259;-60
2024/01/01 10:38:30;;;;;;;10.98;2.30;;;7.60;99.90;;;;;;5070902;28;20217;-60
2024/01/01 10:40:59;;;;;;;2.95;2.17;;;7.60;99.90;;;;;;5071425;28;20292;-60
2024/01/01 10:43:28;;;;;;;2.08;1.45;;;7.60;99.90;;;;;;5070813;28;20259;-59
2024/01/01 10:46:03;;;;;;;7.05;2.78;;;7.60;99.90;;;;;;5071893;28;20664;-60
2024/01/01 10:48:31;;;;;;;2.20;1.63;;;7.70;99.90;;;;;;5070965;28;20213;-60
2024/01/01 10:51:24;;;;;;;5.13;2.63;;;7.80;99.90;;;;;;5071636;28;20656;-59
2024/01/01 10:54:26;;;;;;;4.40;2.20;;;8.00;99.90;;;;;;5070991;28;20209;-60
2024/01/01 10:57:08;;;;;;;7.20;2.97;;;8.10;99.90;;;;;;5037009;28;20259;-60
2024/01/01 10:59:44;;;;;;;3.13;1.57;;;8.30;99.90;;;;;;5070179;28;20228;-60
2024/01/01 11:02:11;;;;;;;1.83;1.20;;;8.30;99.90;;;;;;5071723;28;20474;-59
2024/01/01 11:04:38;;;;;;;5.78;1.95;;;8.30;99.90;;;;;;5071137;28;20293;-60
2024/01/01 11:07:05;;;;;;;5.07;2.50;;;8.30;99.90;;;;;;5071244;28;20292;-60
2024/01/01 11:09:34;;;;;;;16.33;2.28;;;8.40;99.90;;;;;;5071390;28;20201;-60
2024/01/01 11:12:05;;;;;;;6.32;2.08;;;8.40;99.90;;;;;;5071126;28;20229;-60
2024/01/01 11:14:34;;;;;;;6.07;1.88;;;8.40;99.90;;;;;;5071176;28;20205;-59
2024/01/01 11:17:04;;;;;;;6.53;2.00;;;8.40;99.90;;;;;;5071304;28;20706;-59
2024/01/01 11:19:39;;;;;;;5.20;1.85;;;8.40;99.90;;;;;;5071423;28;20232;-60
2024/01/01 11:22:31;;;;;;;4.22;2.08;;;8.50;99.90;;;;;;5071258;28;20311;-59
2024/01/01 11:24:59;;;;;;;4.50;2.10;;;8.50;99.90;;;;;;5070863;28;20280;-60
2024/01/01 11:27:28;;;;;;;5.00;2.80;;;8.50;99.90;;;;;;5071371;28;20547;-59
2024/01/01 11:30:01;;;;;;;9.75;5.43;;;8.50;99.90;;;;;;5071122;28;20212;-60
2024/01/01 11:32:28;;;;;;;2.30;1.70;;;8.50;99.90;;;;;;5071028;28;20734;-60
2024/01/01 11:35:09;;;;;;;5.05;2.60;;;8.50;99.90;;;;;;5071386;28;20205;-60
2024/01/01 11:37:36;;;;;;;4.55;1.38;;;8.50;99.90;;;;;;5071334;28;20292;-59
2024/01/01 11:40:05;;;;;;;1.58;1.48;;;8.40;99.90;;;;;;5071243;28;20289;-60
2024/01/01 11:42:34;;;;;;;5.13;1.70;;;8.40;99.90;;;;;;5062616;28;20243;-59
2024/01/01 11:45:11;;;;;;;4.68;2.25;;;8.40;99.90;;;;;;5066409;28;20267;-59
2024/01/01 11:47:39;;;;;;;5.28;2.90;;;8.40;99.90;;;;;;5063601;28;20288;-59
2024/01/01 11:50:07;;;;;;;2.47;2.28;;;8.40;99.90;;;;;;5071270;28;20208;-61
2024/01/01 11:52:34;;;;;;;5.65;1.85;;;8.40;99.90;;;;;;5070583;28;20703;-60
2024/01/01 11:55:01;;;;;;;2.60;2.22;;;8.40;99.90;;;;;;5070703;28;20206;-61
2024/01/01 11:57:28;;;;;;;3.92;3.38;;;8.40;99.90;;;;;;5070187;28;20212;-58
2024/01/01 11:59:57;;;;;;;1.83;1.70;;;8.40;99.90;;;;;;5066317;28;20316;-61
2024/01/01 12:02:24;;;;;;;3.60;2.92;;;8.40;99.90;;;;;;5070417;28;20229;-63
2024/01/01 12:04:53;;;;;;;7.13;2.08;;;8.40;99.90;;;;;;5070016;28;20293;-62
2024/01/01 12:07:30;;;;;;;5.90;2.10;;;8.40;99.90;;;;;;5069353;28;20205;-62
2024/01/01 12:10:07;;;;;;;3.75;3.00;;;8.30;99.90;;;;;;5070240;28;20643;-63
2024/01/01 12:12:34;;;;;;;4.30;1.63;;;8.20;99.90;;;;;;5069553;28;20630;-62
2024/01/01 12:15:13;;;;;;;5.10;2.58;;;8.20;99.90;;;;;;5068455;28;20305;-61
2024/01/01 12:17:43;;;;;;;4.63;1.90;;;8.10;99.90;;;;;;5071461;28;20631;-62
2024/01/01 12:20:14;;;;;;;2.78;1.85;;;8.00;99.90;;;;;;5073876;28;20225;-62
2024/01/01 12:22:41;;;;;;;6.35;2.47;;;8.00;99.90;;;;;;5067590;28;20301;-61
2024/01/01 12:25:14;;;;;;;5.95;2.08;;;8.00;99.90;;;;;;5073426;28;20201;-63
2024/01/01 12:27:41;;;;;;;7.63;2.05;;;8.00;99.90;;;;;;5064465;28;20205;-63
2024/01/01 12:30:08;;;;;;;5.90;2.30;;;8.00;99.90;;;;;;5067505;28;20227;-62
2024/01/01 12:32:37;;;;;;;2.92;1.85;;;8.00;99.90;;;;;;5073814;28;20225;-61
2024/01/01 12:35:04;;;;;;;2.78;1.77;;;8.10;99.90;;;;;;5069089;28;20296;-62
2024/01/01 12:37:31;;;;;;;6.43;2.70;;;8.20;99.90;;;;;;5072576;28;20288;-62
2024/01/01 12:39:58;;;;;;;5.65;2.30;;;8.30;99.90;;;;;;5068044;28;20313;-63
2024/01/01 12:42:25;;;;;;;6.28;2.83;;;8.40;99.90;;;;;;5073486;28;20233;-62
2024/01/01 12:44:52;;;;;;;1.83;1.20;;;8.50;99.90;;;;;;5073501;28;20316;-62
2024/01/01 12:47:19;;;;;;;5.57;2.60;;;8.60;99.90;;;;;;5072694;28;20229;-63
2024/01/01 12:49:47;;;;;;;4.20;1.70;;;8.60;99.90;;;;;;5092827;22;20233;-59
2024/01/01 12:52:15;;;;;;;3.72;2.05;;;8.70;99.90;;;;;;5073455;28;20208;-57
2024/01/01 12:54:41;;;;;;;3.10;2.13;;;8.70;99.90;;;;;;5072862;28;20799;-55